Time;durP1;ratioP1;P1;durP2;ratioP2;P2;SDS_P1;SDS_P2;PMS_P1;PMS_P2;Temp;Humidity;BMP_temperature;BMP_pressure;BME280_temperature;BME280_humidity;BME280_pressure;Samples;Min_cycle;Max_cycle;Signal;HPM_P1;HPM_P2
2022/07/30 00:01:58;;;;;;;3.30;3.00;;;;;17.80;94297.00;;;;7392258;19;20597;-73
2022/07/30 00:04:32;;;;;;;4.47;3.40;;;;;17.80;94295.00;;;;7394950;19;20136;-73
2022/07/30 00:07:02;;;;;;;4.95;3.78;;;;;17.70;94297.00;;;;7395510;19;20172;-73
2022/07/30 00:09:31;;;;;;;3.70;3.30;;;;;17.70;94304.00;;;;7391652;19;20617;-73
2022/07/30 00:12:06;;;;;;;9.30;3.75;;;;;17.50;94303.00;;;;7392906;19;20587;-73
2022/07/30 00:14:34;;;;;;;7.15;3.55;;;;;17.60;94304.00;;;;7394123;19;20148;-72
2022/07/30 00:17:03;;;;;;;3.45;3.15;;;;;17.40;94302.00;;;;7392029;19;20163;-73
2022/07/30 00:19:36;;;;;;;4.43;3.47;;;;;17.30;94299.00;;;;7392073;19;20610;-72
2022/07/30 00:22:04;;;;;;;3.90;3.15;;;;;17.10;94297.00;;;;7390943;19;20144;-73
2022/07/30 00:24:31;;;;;;;5.18;3.40;;;;;17.20;94298.00;;;;7390260;19;20175;-73
2022/07/30 00:27:05;;;;;;;4.43;3.70;;;;;17.30;94300.00;;;;7392744;19;20150;-72
2022/07/30 00:29:33;;;;;;;4.45;3.67;;;;;17.40;94304.00;;;;7392205;19;20137;-73
2022/07/30 00:32:03;;;;;;;4.50;3.47;;;;;17.10;94307.00;;;;7391352;19;20148;-72
2022/07/30 00:34:37;;;;;;;5.85;3.38;;;;;17.10;94297.00;;;;7394914;19;20128;-72
2022/07/30 00:37:04;;;;;;;3.67;3.25;;;;;17.10;94310.00;;;;7394979;19;20149;-73
2022/07/30 00:39:32;;;;;;;4.60;3.28;;;;;16.90;94311.00;;;;7390750;19;20137;-72
2022/07/30 00:42:07;;;;;;;5.95;3.50;;;;;16.80;94300.00;;;;7390069;19;20148;-74
2022/07/30 00:44:34;;;;;;;3.78;3.30;;;;;16.70;94306.00;;;;7393690;19;20172;-71
2022/07/30 00:47:07;;;;;;;5.63;3.75;;;;;16.90;94305.00;;;;7393697;19;20136;-72
2022/07/30 00:49:41;;;;;;;5.53;3.75;;;;;16.90;94304.00;;;;7390866;19;20604;-73
2022/07/30 00:52:10;;;;;;;4.53;3.65;;;;;16.70;94306.00;;;;7392262;19;20137;-73
2022/07/30 00:54:38;;;;;;;4.10;3.80;;;;;16.60;94302.00;;;;7393130;19;20135;-72
2022/07/30 00:57:12;;;;;;;4.35;3.95;;;;;16.80;94301.00;;;;7392207;19;20504;-73
2022/07/30 00:59:40;;;;;;;7.55;4.20;;;;;16.70;94304.00;;;;7390489;19;20133;-73
2022/07/30 01:02:07;;;;;;;5.00;4.13;;;;;16.60;94307.00;;;;7391122;19;20148;-78
2022/07/30 01:04:41;;;;;;;4.90;4.30;;;;;16.50;94307.00;;;;7393633;19;20590;-77
2022/07/30 01:07:09;;;;;;;6.28;4.38;;;;;16.50;94308.00;;;;7394957;19;20497;-77
2022/07/30 01:09:37;;;;;;;6.90;4.57;;;;;16.40;94316.00;;;;7390477;19;20121;-78
2022/07/30 01:12:20;;;;;;;10.55;5.28;;;;;16.40;94312.00;;;;7391550;19;20623;-78
2022/07/30 01:14:48;;;;;;;4.50;4.10;;;;;16.40;94315.00;;;;7392630;19;20179;-78
2022/07/30 01:17:36;;;;;;;5.25;4.57;;;;;16.30;94309.00;;;;7388047;19;20163;-79
2022/07/30 01:20:08;;;;;;;5.72;4.95;;;;;16.20;94320.00;;;;7390746;19;20143;-79
2022/07/30 01:23:07;;;;;;;8.00;4.65;;;;;16.10;94319.00;;;;7391900;19;20129;-78
2022/07/30 01:25:55;;;;;;;6.45;4.45;;;;;16.10;94319.00;;;;7389023;19;20156;-79
2022/07/30 01:28:40;;;;;;;6.38;4.32;;;;;16.00;94311.00;;;;7388863;19;20149;-77
2022/07/30 01:31:09;;;;;;;11.43;5.15;;;;;15.90;94302.00;;;;7393950;19;20184;-79
2022/07/30 01:33:46;;;;;;;5.18;4.07;;;;;15.70;94316.00;;;;7392380;19;20129;-77
2022/07/30 01:36:17;;;;;;;5.05;4.55;;;;;15.60;94318.00;;;;7396894;19;20136;-79
2022/07/30 01:38:52;;;;;;;5.93;4.70;;;;;15.50;94314.00;;;;7399234;19;20136;-77
2022/07/30 01:41:20;;;;;;;5.40;4.05;;;;;15.40;94311.00;;;;7395511;19;20497;-77
2022/07/30 01:43:47;;;;;;;6.03;4.10;;;;;15.20;94302.00;;;;7397321;19;20149;-77
2022/07/30 01:46:23;;;;;;;5.03;4.00;;;;;15.10;94304.00;;;;7397220;19;20169;-79
2022/07/30 01:48:52;;;;;;;8.18;4.20;;;;;15.00;94303.00;;;;7399659;19;20237;-77
2022/07/30 01:51:20;;;;;;;6.70;3.80;;;;;14.80;94306.00;;;;7395921;19;20137;-76
2022/07/30 01:54:08;;;;;;;4.85;3.78;;;;;14.70;94300.00;;;;7397997;19;20152;-77
2022/07/30 01:56:37;;;;;;;5.32;3.90;;;;;14.60;94297.00;;;;7398960;19;20136;-77
2022/07/30 01:59:13;;;;;;;5.10;4.05;;;;;14.60;94298.00;;;;7399175;19;20582;-78
2022/07/30 02:01:41;;;;;;;4.65;4.05;;;;;14.50;94305.00;;;;7394895;19;20617;-76
2022/07/30 02:04:09;;;;;;;6.05;4.05;;;;;14.40;94298.00;;;;7398077;19;20133;-78
2022/07/30 02:06:55;;;;;;;5.70;4.40;;;;;14.40;94304.00;;;;7398026;19;20136;-77
2022/07/30 02:09:33;;;;;;;6.40;4.22;;;;;14.40;94308.00;;;;7396252;19;20140;-77
2022/07/30 02:12:27;;;;;;;6.93;4.55;;;;;14.50;94306.00;;;;7398091;19;20113;-77
2022/07/30 02:15:26;;;;;;;6.18;5.40;;;;;14.40;94307.00;;;;7399783;19;20451;-77
2022/07/30 02:18:12;;;;;;;6.57;4.63;;;;;14.30;94312.00;;;;7397105;19;20129;-77
2022/07/30 02:20:45;;;;;;;4.35;3.92;;;;;14.20;94312.00;;;;7397981;19;20487;-78
2022/07/30 02:23:21;;;;;;;5.85;4.80;;;;;14.50;94308.00;;;;7394271;19;21166;-77
2022/07/30 02:25:50;;;;;;;6.30;4.57;;;;;14.30;94317.00;;;;7398020;19;20488;-76
2022/07/30 02:28:20;;;;;;;10.50;4.93;;;;;14.20;94315.00;;;;7395954;19;20501;-78
2022/07/30 02:30:57;;;;;;;9.88;4.70;;;;;14.30;94313.00;;;;7396004;19;20130;-78
2022/07/30 02:33:32;;;;;;;11.85;6.03;;;;;14.60;94319.00;;;;7396990;19;20133;-78
2022/07/30 02:36:17;;;;;;;7.32;5.60;;;;;14.40;94306.00;;;;7396452;19;20509;-77
2022/07/30 02:38:49;;;;;;;8.32;5.28;;;;;14.40;94320.00;;;;7398605;19;20463;-78
2022/07/30 02:41:26;;;;;;;6.75;5.40;;;;;14.30;94322.00;;;;7393982;19;20860;-78
2022/07/30 02:43:55;;;;;;;10.93;6.00;;;;;14.50;94320.00;;;;7397585;19;20478;-77
2022/07/30 02:46:24;;;;;;;6.13;5.13;;;;;14.40;94320.00;;;;7394349;19;20444;-77
2022/07/30 02:48:59;;;;;;;6.10;4.50;;;;;14.30;94321.00;;;;7396534;19;20132;-76
2022/07/30 02:51:28;;;;;;;7.70;5.07;;;;;14.30;94327.00;;;;7394113;19;20169;-77
2022/07/30 02:53:57;;;;;;;6.68;5.20;;;;;14.40;94324.00;;;;7397016;19;20477;-77
2022/07/30 02:56:32;;;;;;;8.00;5.32;;;;;14.40;94316.00;;;;7395115;19;20136;-76
2022/07/30 02:59:03;;;;;;;10.05;5.40;;;;;14.50;94324.00;;;;7397353;19;20491;-76
2022/07/30 03:01:32;;;;;;;5.47;4.85;;;;;14.50;94327.00;;;;7392292;19;20145;-76
2022/07/30 03:04:07;;;;;;;6.75;5.10;;;;;14.50;94329.00;;;;7394291;19;20149;-77
2022/07/30 03:06:35;;;;;;;8.60;5.80;;;;;14.40;94333.00;;;;7396741;19;20638;-78
2022/07/30 03:09:04;;;;;;;13.00;5.30;;;;;14.40;94328.00;;;;7397208;19;20611;-77
2022/07/30 03:11:44;;;;;;;7.85;5.53;;;;;14.50;94333.00;;;;7394224;19;20145;-78
2022/07/30 03:14:12;;;;;;;9.55;5.57;;;;;14.50;94332.00;;;;7395549;19;20477;-77
2022/07/30 03:16:58;;;;;;;7.93;5.10;;;;;14.60;94329.00;;;;7394092;19;20188;-77
2022/07/30 03:19:35;;;;;;;6.65;5.32;;;;;14.50;94337.00;;;;7393740;19;20603;-78
2022/07/30 03:22:11;;;;;;;6.78;5.10;;;;;14.60;94329.00;;;;7392977;19;20629;-77
2022/07/30 03:24:39;;;;;;;6.68;5.03;;;;;14.50;94326.00;;;;7395458;19;20148;-77
2022/07/30 03:27:10;;;;;;;8.23;4.95;;;;;14.40;94335.00;;;;7396532;19;20132;-76
2022/07/30 03:29:45;;;;;;;7.75;5.10;;;;;14.60;94335.00;;;;7394304;19;20586;-77
2022/07/30 03:32:13;;;;;;;7.72;4.88;;;;;14.80;94339.00;;;;7393214;19;20185;-77
2022/07/30 03:34:42;;;;;;;6.82;4.55;;;;;14.80;94340.00;;;;7395212;19;20148;-77
2022/07/30 03:37:16;;;;;;;6.95;4.68;;;;;14.80;94340.00;;;;7398500;19;20151;-78
2022/07/30 03:39:45;;;;;;;6.15;4.85;;;;;14.70;94337.00;;;;7392438;19;20121;-77
2022/07/30 03:42:12;;;;;;;7.00;4.88;;;;;14.70;94335.00;;;;7392024;19;20145;-76
2022/07/30 03:44:47;;;;;;;6.30;5.70;;;;;14.80;94336.00;;;;7396064;19;20578;-78
2022/07/30 03:47:16;;;;;;;11.32;5.60;;;;;15.10;94342.00;;;;7395760;19;20590;-79
2022/07/30 03:49:43;;;;;;;6.15;4.75;;;;;15.10;94341.00;;;;7392778;19;20128;-77
2022/07/30 03:52:18;;;;;;;8.10;5.50;;;;;14.90;94349.00;;;;7395221;19;20155;-77
2022/07/30 03:54:47;;;;;;;9.15;5.70;;;;;14.80;94345.00;;;;7395991;19;20590;-77
2022/07/30 03:57:14;;;;;;;9.30;5.20;;;;;14.60;94347.00;;;;7395103;19;20599;-77
2022/07/30 03:59:50;;;;;;;6.70;5.28;;;;;15.00;94347.00;;;;7390293;19;20144;-79
2022/07/30 04:02:18;;;;;;;9.23;5.43;;;;;15.00;94353.00;;;;7390935;19;20573;-78
2022/07/30 04:04:46;;;;;;;9.20;5.20;;;;;15.00;94355.00;;;;7394368;19;20149;-80
2022/07/30 04:07:19;;;;;;;8.70;6.40;;;;;15.10;94355.00;;;;7392961;19;20208;-77
2022/07/30 04:09:47;;;;;;;7.90;5.82;;;;;15.30;94351.00;;;;7391978;19;20152;-79
2022/07/30 04:12:14;;;;;;;8.07;5.63;;;;;15.50;94360.00;;;;7389701;19;20129;-76
2022/07/30 04:14:48;;;;;;;9.48;6.00;;;;;15.30;94358.00;;;;7395282;19;20607;-77
2022/07/30 04:17:29;;;;;;;7.00;5.15;;;;;15.20;94366.00;;;;7392706;19;20160;-77
2022/07/30 04:20:12;;;;;;;7.25;5.30;;;;;15.00;94373.00;;;;7391678;19;20157;-76
2022/07/30 04:22:45;;;;;;;7.88;5.30;;;;;15.40;94365.00;;;;7393727;19;20594;-77
2022/07/30 04:25:20;;;;;;;9.07;5.53;;;;;15.20;94370.00;;;;7390245;19;20598;-78
2022/07/30 04:27:51;;;;;;;6.90;5.68;;;;;15.10;94366.00;;;;7391745;19;20594;-77
2022/07/30 04:30:29;;;;;;;7.40;6.13;;;;;15.40;94363.00;;;;7392156;19;20132;-76
2022/07/30 04:33:04;;;;;;;5.47;4.97;;;;;15.40;94368.00;;;;7393634;19;20144;-77
2022/07/30 04:35:33;;;;;;;6.38;5.13;;;;;15.30;94375.00;;;;7377655;19;20144;-77
2022/07/30 04:38:19;;;;;;;8.35;5.25;;;;;15.40;94370.00;;;;7393168;19;20623;-76
2022/07/30 04:40:53;;;;;;;6.68;5.32;;;;;15.50;94369.00;;;;7389633;19;20168;-77
2022/07/30 04:43:21;;;;;;;7.47;5.43;;;;;15.50;94377.00;;;;7362625;19;20602;-76
2022/07/30 04:45:48;;;;;;;9.05;5.07;;;;;15.40;94374.00;;;;7380644;19;20171;-77
2022/07/30 04:48:25;;;;;;;10.20;6.10;;;;;15.50;94378.00;;;;7379707;19;20140;-77
2022/07/30 04:50:56;;;;;;;7.50;5.70;;;;;15.50;94376.00;;;;7350544;19;20160;-77
2022/07/30 04:53:31;;;;;;;7.25;4.78;;;;;15.60;94380.00;;;;7348734;19;20167;-77
2022/07/30 04:56:00;;;;;;;7.22;4.90;;;;;15.60;94381.00;;;;7382908;19;20649;-77
2022/07/30 04:58:28;;;;;;;6.90;4.90;;;;;15.60;94391.00;;;;7377603;19;20145;-77
2022/07/30 05:03:42;;;;;;;9.43;5.40;;;;;16.00;94388.00;;;;7378349;19;20645;-74
2022/07/30 05:06:18;;;;;;;8.30;5.35;;;;;16.10;94395.00;;;;7392847;19;20124;-75
2022/07/30 05:08:45;;;;;;;6.68;4.57;;;;;16.10;94389.00;;;;7392524;19;20129;-75
2022/07/30 05:11:14;;;;;;;8.57;4.93;;;;;16.20;94389.00;;;;7398495;19;20494;-75
2022/07/30 05:13:48;;;;;;;6.65;4.57;;;;;16.30;94393.00;;;;7399789;19;20143;-75
2022/07/30 05:16:16;;;;;;;7.78;5.07;;;;;16.40;94388.00;;;;7382975;19;20155;-76
2022/07/30 05:18:44;;;;;;;6.75;4.90;;;;;16.50;94390.00;;;;7386474;19;20630;-76
2022/07/30 05:21:18;;;;;;;5.32;4.10;;;;;16.70;94395.00;;;;7385414;19;20606;-76
2022/07/30 05:23:46;;;;;;;5.55;4.75;;;;;16.80;94389.00;;;;7391413;19;20137;-76
2022/07/30 05:26:21;;;;;;;7.40;4.80;;;;;16.90;94380.00;;;;7400290;19;20155;-76
2022/07/30 05:28:55;;;;;;;5.85;4.70;;;;;17.00;94384.00;;;;7381206;19;20140;-75
2022/07/30 05:31:24;;;;;;;8.98;5.68;;;;;17.10;94388.00;;;;7391173;19;20617;-75
2022/07/30 05:33:55;;;;;;;5.50;4.57;;;;;17.20;94397.00;;;;7379636;19;20725;-75
2022/07/30 05:36:30;;;;;;;9.65;4.80;;;;;17.40;94392.00;;;;7399740;19;20184;-75
2022/07/30 05:38:58;;;;;;;6.68;4.80;;;;;17.50;94389.00;;;;7398584;19;20635;-76
2022/07/30 05:41:26;;;;;;;5.30;4.75;;;;;17.70;94394.00;;;;7398426;19;20148;-75
2022/07/30 05:44:00;;;;;;;7.55;4.75;;;;;17.80;94392.00;;;;7366653;19;20189;-75
2022/07/30 05:46:30;;;;;;;7.53;5.05;;;;;17.80;94395.00;;;;7397131;19;20136;-74
2022/07/30 05:48:57;;;;;;;7.80;4.97;;;;;17.90;94398.00;;;;7373777;19;20167;-75
2022/07/30 05:51:31;;;;;;;6.10;4.80;;;;;18.10;94401.00;;;;7387407;19;20528;-75
2022/07/30 05:53:59;;;;;;;8.57;5.07;;;;;18.20;94400.00;;;;7348767;19;20188;-75
2022/07/30 05:56:27;;;;;;;10.05;4.97;;;;;18.40;94405.00;;;;7363973;19;20622;-75
2022/07/30 05:59:01;;;;;;;5.68;5.07;;;;;18.80;94405.00;;;;7398117;19;20188;-74
2022/07/30 06:01:35;;;;;;;8.05;4.97;;;;;19.00;94403.00;;;;7397728;19;20177;-76
2022/07/30 06:04:16;;;;;;;14.27;7.15;;;;;19.00;94403.00;;;;7396249;19;20132;-74
2022/07/30 06:06:43;;;;;;;7.18;5.50;;;;;19.30;94410.00;;;;7398238;19;20135;-75
2022/07/30 06:09:17;;;;;;;11.52;6.72;;;;;19.50;94404.00;;;;7397352;19;20578;-75
2022/07/30 06:12:03;;;;;;;5.57;4.63;;;;;19.60;94402.00;;;;7397864;19;20622;-75
2022/07/30 06:14:36;;;;;;;10.27;5.13;;;;;19.80;94411.00;;;;7397953;19;20614;-75
2022/07/30 06:17:04;;;;;;;9.30;5.80;;;;;19.90;94410.00;;;;7396720;19;20213;-74
2022/07/30 06:19:31;;;;;;;7.47;4.88;;;;;19.80;94409.00;;;;7399845;19;20128;-74
2022/07/30 06:22:05;;;;;;;6.80;5.07;;;;;19.80;94413.00;;;;7395687;19;20117;-74
2022/07/30 06:24:33;;;;;;;11.00;5.28;;;;;19.90;94421.00;;;;7398230;19;20167;-74
2022/07/30 06:27:08;;;;;;;5.10;4.00;;;;;20.10;94410.00;;;;7396975;19;20137;-75
2022/07/30 06:29:42;;;;;;;6.03;4.20;;;;;20.30;94415.00;;;;7399523;19;20478;-75
2022/07/30 06:32:10;;;;;;;6.95;4.57;;;;;20.30;94418.00;;;;7397893;19;20147;-74
2022/07/30 06:34:37;;;;;;;5.53;3.53;;;;;20.30;94413.00;;;;7396327;19;20232;-74
2022/07/30 06:37:11;;;;;;;5.53;3.53;;;;;20.50;94413.00;;;;7397463;19;20152;-74
2022/07/30 06:39:39;;;;;;;5.55;3.78;;;;;20.60;94416.00;;;;7398099;19;20626;-76
2022/07/30 06:42:25;;;;;;;4.90;3.35;;;;;20.50;94420.00;;;;7396420;19;20125;-75
2022/07/30 06:44:58;;;;;;;6.00;3.70;;;;;20.60;94415.00;;;;7397047;19;20124;-74
2022/07/30 06:47:28;;;;;;;5.63;3.33;;;;;20.50;94416.00;;;;7398222;19;20121;-75
2022/07/30 06:49:56;;;;;;;5.93;3.58;;;;;20.60;94418.00;;;;7398070;19;20133;-74
2022/07/30 06:52:30;;;;;;;5.28;3.53;;;;;20.60;94413.00;;;;7398365;19;20636;-74
2022/07/30 06:54:58;;;;;;;5.82;4.05;;;;;20.80;94427.00;;;;7393904;19;20163;-74
2022/07/30 06:57:25;;;;;;;7.55;3.78;;;;;20.90;94419.00;;;;7397333;19;20680;-76
2022/07/30 07:00:07;;;;;;;6.35;3.20;;;;;21.00;94424.00;;;;7396135;19;20120;-75
2022/07/30 07:02:44;;;;;;;4.25;3.55;;;;;21.20;94417.00;;;;7394631;19;20922;-74
2022/07/30 07:05:27;;;;;;;7.38;3.92;;;;;21.10;94427.00;;;;7395954;19;20137;-73
2022/07/30 07:07:55;;;;;;;6.43;3.15;;;;;21.10;94423.00;;;;7396114;19;20172;-74
2022/07/30 07:10:29;;;;;;;10.10;3.40;;;;;21.10;94437.00;;;;7397187;19;20155;-75
2022/07/30 07:12:59;;;;;;;4.38;3.40;;;;;21.30;94429.00;;;;7393993;19;20279;-74
2022/07/30 07:15:27;;;;;;;5.72;3.15;;;;;21.60;94428.00;;;;7396470;19;20904;-75
2022/07/30 07:18:05;;;;;;;3.92;3.05;;;;;22.10;94434.00;;;;7394736;19;20144;-75
2022/07/30 07:20:35;;;;;;;5.07;3.13;;;;;22.20;94443.00;;;;7396144;19;20155;-75
2022/07/30 07:23:09;;;;;;;8.15;3.67;;;;;22.30;94443.00;;;;7393213;19;20145;-74
2022/07/30 07:25:39;;;;;;;6.03;3.50;;;;;21.80;94434.00;;;;7395160;19;20622;-78
2022/07/30 07:28:07;;;;;;;6.35;2.78;;;;;22.00;94445.00;;;;7395529;19;20137;-77
2022/07/30 07:30:42;;;;;;;3.40;3.10;;;;;22.30;94439.00;;;;7394036;19;20602;-75
2022/07/30 07:33:11;;;;;;;17.17;3.97;;;;;22.20;94438.00;;;;7393663;19;20595;-75
2022/07/30 07:35:39;;;;;;;7.22;3.03;;;;;22.00;94449.00;;;;7393380;19;20141;-75
2022/07/30 07:38:19;;;;;;;10.63;3.47;;;;;21.90;94450.00;;;;7395381;19;20148;-74
2022/07/30 07:40:47;;;;;;;6.55;3.08;;;;;21.50;94454.00;;;;7393310;19;20129;-75
2022/07/30 07:43:23;;;;;;;4.80;3.00;;;;;21.20;94459.00;;;;7392779;19;20136;-75
2022/07/30 07:45:51;;;;;;;4.30;3.30;;;;;21.10;94462.00;;;;7395162;19;20575;-75
2022/07/30 07:48:19;;;;;;;6.25;2.88;;;;;21.00;94448.00;;;;7395968;19;20128;-74
2022/07/30 07:50:53;;;;;;;6.85;2.83;;;;;21.10;94453.00;;;;7392916;19;20155;-77
2022/07/30 07:53:27;;;;;;;4.97;3.45;;;;;21.80;94445.00;;;;7393600;19;20558;-76
2022/07/30 07:56:01;;;;;;;9.10;3.50;;;;;22.40;94447.00;;;;7394188;19;20143;-74
2022/07/30 07:58:30;;;;;;;2.95;2.40;;;;;22.50;94444.00;;;;7395444;19;20129;-76
2022/07/30 08:00:58;;;;;;;4.43;2.40;;;;;22.70;94442.00;;;;7392231;19;20133;-74
2022/07/30 08:03:38;;;;;;;6.93;3.00;;;;;23.10;94439.00;;;;7392505;19;20657;-75
2022/07/30 08:06:05;;;;;;;6.85;2.80;;;;;23.50;94456.00;;;;7393574;19;20172;-73
2022/07/30 08:08:41;;;;;;;7.25;3.05;;;;;23.60;94448.00;;;;7392629;19;20211;-75
2022/07/30 08:11:09;;;;;;;4.28;2.92;;;;;23.30;94436.00;;;;7394809;19;20121;-75
2022/07/30 08:13:36;;;;;;;6.20;3.78;;;;;23.10;94450.00;;;;7395601;19;20133;-76
2022/07/30 08:16:19;;;;;;;3.72;2.70;;;;;23.20;94444.00;;;;7393996;19;20220;-76
2022/07/30 08:18:47;;;;;;;5.60;2.70;;;;;23.60;94444.00;;;;7391147;19;20144;-76
2022/07/30 08:21:21;;;;;;;6.25;2.58;;;;;23.30;94441.00;;;;7394427;19;20124;-75
2022/07/30 08:23:49;;;;;;;3.92;2.50;;;;;23.40;94458.00;;;;7391754;19;20488;-76
2022/07/30 08:26:17;;;;;;;6.70;3.10;;;;;23.10;94454.00;;;;7395420;19;20157;-76
2022/07/30 08:28:50;;;;;;;4.00;3.22;;;;;22.50;94448.00;;;;7392208;19;20203;-78
2022/07/30 08:31:20;;;;;;;4.68;2.65;;;;;23.10;94439.00;;;;7393079;19;20143;-75
2022/07/30 08:33:48;;;;;;;4.18;2.75;;;;;23.50;94445.00;;;;7393977;19;20512;-75
2022/07/30 08:36:22;;;;;;;5.60;3.42;;;;;23.60;94444.00;;;;7391935;19;20151;-77
2022/07/30 08:38:52;;;;;;;5.15;2.75;;;;;23.60;94460.00;;;;7391326;19;20156;-74
2022/07/30 08:41:20;;;;;;;4.80;2.45;;;;;23.50;94455.00;;;;7393613;19;20133;-77
2022/07/30 08:43:56;;;;;;;5.72;2.60;;;;;23.20;94464.00;;;;7391077;19;20128;-75
2022/07/30 08:46:26;;;;;;;6.47;3.00;;;;;22.90;94450.00;;;;7392261;19;20133;-76
2022/07/30 08:48:54;;;;;;;5.53;2.80;;;;;22.70;94460.00;;;;7391582;19;20155;-75
2022/07/30 08:51:38;;;;;;;4.43;2.92;;;;;22.80;94450.00;;;;7392762;19;20160;-76
2022/07/30 08:54:06;;;;;;;6.35;2.92;;;;;22.40;94469.00;;;;7392608;19;20144;-75
2022/07/30 08:56:40;;;;;;;4.30;2.72;;;;;22.00;94472.00;;;;7390973;19;20187;-76
2022/07/30 08:59:09;;;;;;;5.70;2.95;;;;;22.50;94444.00;;;;7391299;19;20125;-75
2022/07/30 09:01:37;;;;;;;4.57;2.58;;;;;22.80;94468.00;;;;7392592;19;20216;-75
2022/07/30 09:04:18;;;;;;;8.40;2.63;;;;;23.00;94453.00;;;;7390294;19;20133;-75
2022/07/30 09:06:45;;;;;;;4.60;2.47;;;;;23.10;94464.00;;;;7389075;19;20643;-75
2022/07/30 09:09:20;;;;;;;4.32;2.65;;;;;22.70;94471.00;;;;7392896;19;20136;-75
2022/07/30 09:11:47;;;;;;;3.42;2.67;;;;;23.00;94452.00;;;;7393097;19;20629;-74
2022/07/30 09:14:15;;;;;;;9.65;2.95;;;;;23.30;94463.00;;;;7390576;19;20125;-76
2022/07/30 09:16:57;;;;;;;7.03;2.70;;;;;22.90;94457.00;;;;7392429;19;20152;-75
2022/07/30 09:19:25;;;;;;;6.05;3.28;;;;;22.60;94475.00;;;;7390860;19;20662;-79
2022/07/30 09:22:01;;;;;;;6.78;2.92;;;;;23.10;94466.00;;;;7392645;19;20133;-76
2022/07/30 09:24:42;;;;;;;5.13;3.13;;;;;23.30;94468.00;;;;7391817;19;20508;-75
2022/07/30 09:27:17;;;;;;;8.70;2.88;;;;;23.30;94460.00;;;;7391783;19;20150;-75
2022/07/30 09:29:55;;;;;;;3.15;2.58;;;;;23.40;94473.00;;;;7391844;19;20160;-76
2022/07/30 09:32:47;;;;;;;7.82;2.75;;;;;23.20;94476.00;;;;7392412;19;20168;-75
2022/07/30 09:35:16;;;;;;;8.43;2.85;;;;;23.70;94470.00;;;;7391223;19;20208;-76
2022/07/30 09:38:00;;;;;;;4.10;2.80;;;;;23.70;94447.00;;;;7391816;19;20141;-76
2022/07/30 09:40:33;;;;;;;8.05;2.70;;;;;24.50;94463.00;;;;7394071;19;20140;-74
2022/07/30 09:43:10;;;;;;;4.80;3.25;;;;;23.70;94467.00;;;;7392446;19;20131;-77
2022/07/30 09:45:54;;;;;;;3.08;2.28;;;;;24.30;94449.00;;;;7391517;19;20508;-74
2022/07/30 09:48:28;;;;;;;5.32;2.70;;;;;25.00;94453.00;;;;7391964;19;20487;-75
2022/07/30 09:50:56;;;;;;;4.65;2.45;;;;;24.90;94447.00;;;;7391587;19;20157;-76
2022/07/30 09:53:25;;;;;;;9.05;2.55;;;;;25.60;94461.00;;;;7391055;19;20121;-75
2022/07/30 09:55:59;;;;;;;7.28;2.70;;;;;25.40;94462.00;;;;7392059;19;20203;-75
2022/07/30 09:58:45;;;;;;;5.55;2.17;;;;;24.70;94460.00;;;;7398403;19;20486;-75
2022/07/30 10:01:19;;;;;;;4.57;2.20;;;;;25.10;94456.00;;;;7399280;19;20591;-75
2022/07/30 10:03:53;;;;;;;6.72;2.60;;;;;25.40;94443.00;;;;7398039;19;20157;-74
2022/07/30 10:06:35;;;;;;;4.88;2.55;;;;;25.60;94447.00;;;;7397677;19;20177;-75
2022/07/30 10:09:08;;;;;;;4.95;2.45;;;;;25.80;94447.00;;;;7397803;19;20157;-74
2022/07/30 10:11:43;;;;;;;5.60;2.60;;;;;25.70;94451.00;;;;7398142;19;20350;-75
2022/07/30 10:14:11;;;;;;;5.05;2.40;;;;;25.60;94442.00;;;;7398002;19;20156;-78
2022/07/30 10:16:40;;;;;;;3.83;2.65;;;;;25.40;94474.00;;;;7395635;19;20623;-74
2022/07/30 10:19:16;;;;;;;4.22;2.10;;;;;24.50;94450.00;;;;7396649;19;20162;-75
2022/07/30 10:21:50;;;;;;;10.85;2.80;;;;;24.70;94453.00;;;;7398169;19;20622;-75
2022/07/30 10:24:26;;;;;;;5.43;2.33;;;;;24.90;94441.00;;;;7397561;19;20133;-74
2022/07/30 10:26:55;;;;;;;6.18;2.53;;;;;25.30;94442.00;;;;7396180;19;20153;-73
2022/07/30 10:29:22;;;;;;;5.40;2.20;;;;;25.60;94433.00;;;;7396397;19;20217;-73
2022/07/30 10:32:00;;;;;;;5.03;2.08;;;;;25.50;94438.00;;;;7399089;19;20709;-76
2022/07/30 10:34:28;;;;;;;5.03;2.00;;;;;26.10;94432.00;;;;7397657;19;20695;-75
2022/07/30 10:37:11;;;;;;;5.47;2.45;;;;;26.90;94441.00;;;;7394304;19;20605;-75
2022/07/30 10:39:55;;;;;;;3.22;2.40;;;;;26.60;94447.00;;;;7398465;19;20603;-76
2022/07/30 10:42:41;;;;;;;3.85;2.03;;;;;25.90;94441.00;;;;7398093;19;20140;-73
2022/07/30 10:45:26;;;;;;;4.70;1.95;;;;;26.20;94448.00;;;;7396146;19;20208;-74
2022/07/30 10:47:55;;;;;;;6.18;2.17;;;;;26.30;94466.00;;;;7398284;19;20626;-75
2022/07/30 10:50:31;;;;;;;6.00;2.10;;;;;25.80;94466.00;;;;7398239;19;20614;-74
2022/07/30 10:53:00;;;;;;;4.35;2.22;;;;;26.10;94453.00;;;;7394623;19;20144;-74
2022/07/30 10:55:30;;;;;;;7.13;2.30;;;;;26.40;94457.00;;;;7397174;19;20628;-76
2022/07/30 10:58:11;;;;;;;6.63;2.38;;;;;25.90;94473.00;;;;7396548;19;20479;-76
2022/07/30 11:00:53;;;;;;;3.55;2.65;;;;;25.90;94447.00;;;;7395949;19;20131;-73
2022/07/30 11:03:41;;;;;;;3.90;2.30;;;;;25.50;94441.00;;;;7393596;19;20657;-77
2022/07/30 11:06:16;;;;;;;4.13;2.10;;;;;25.90;94448.00;;;;7395674;19;20164;-76
2022/07/30 11:08:51;;;;;;;4.00;1.98;;;;;26.30;94451.00;;;;7391241;19;20140;-73
2022/07/30 11:11:24;;;;;;;8.88;2.10;;;;;26.40;94445.00;;;;7395612;19;20475;-76
2022/07/30 11:14:19;;;;;;;7.93;2.35;;;;;26.20;94434.00;;;;7396678;19;20475;-75
2022/07/30 11:16:50;;;;;;;2.63;1.83;;;;;26.70;94441.00;;;;7396458;19;20117;-74
2022/07/30 11:19:27;;;;;;;3.33;2.20;;;;;26.30;94429.00;;;;7395404;19;20171;-75
2022/07/30 11:22:24;;;;;;;4.25;2.08;;;;;25.90;94464.00;;;;7394058;19;20144;-74
2022/07/30 11:25:00;;;;;;;3.80;2.17;;;;;26.00;94425.00;;;;7391388;19;20175;-74
2022/07/30 11:27:41;;;;;;;3.92;1.90;;;;;27.40;94446.00;;;;7396715;19;20602;-78
2022/07/30 11:30:15;;;;;;;5.63;2.50;;;;;26.90;94444.00;;;;7395113;19;20132;-76
2022/07/30 11:32:49;;;;;;;3.83;2.13;;;;;26.80;94433.00;;;;7395513;19;20137;-74
2022/07/30 11:35:25;;;;;;;3.40;2.13;;;;;27.40;94437.00;;;;7394712;19;20148;-78
2022/07/30 11:38:08;;;;;;;4.47;2.22;;;;;27.80;94433.00;;;;7392824;19;20160;-74
2022/07/30 11:40:45;;;;;;;4.57;2.20;;;;;27.40;94438.00;;;;7392017;19;20148;-75
2022/07/30 11:43:24;;;;;;;4.95;2.38;;;;;27.10;94434.00;;;;7394036;19;20145;-75
2022/07/30 11:46:32;;;;;;;2.83;1.88;;;;;27.10;94437.00;;;;7394338;19;20140;-75
2022/07/30 11:49:07;;;;;;;3.13;2.15;;;;;27.20;94451.00;;;;7395300;19;20129;-75
2022/07/30 11:51:44;;;;;;;2.47;1.83;;;;;26.20;94443.00;;;;7395191;19;20674;-74
2022/07/30 11:54:12;;;;;;;5.75;2.10;;;;;26.30;94464.00;;;;7395058;19;20136;-74
2022/07/30 11:56:51;;;;;;;4.35;2.45;;;;;26.40;94433.00;;;;7394231;19;20631;-75
2022/07/30 11:59:30;;;;;;;2.53;1.75;;;;;26.30;94463.00;;;;7395650;19;20133;-77
2022/07/30 12:02:11;;;;;;;4.78;2.17;;;;;25.90;94462.00;;;;7392846;19;20663;-74
2022/07/30 12:04:46;;;;;;;4.05;2.10;;;;;26.10;94450.00;;;;7391808;19;20591;-74
2022/07/30 12:07:20;;;;;;;3.55;1.90;;;;;26.80;94436.00;;;;7393017;19;20611;-74
2022/07/30 12:10:15;;;;;;;3.13;2.13;;;;;27.40;94429.00;;;;7392986;19;20646;-76
2022/07/30 12:12:43;;;;;;;2.83;1.90;;;;;27.10;94452.00;;;;7393514;19;20133;-77
2022/07/30 12:15:30;;;;;;;3.97;1.98;;;;;26.30;94436.00;;;;7393179;19;20144;-75
2022/07/30 12:17:59;;;;;;;6.80;2.00;;;;;26.80;94449.00;;;;7393856;19;20618;-74
2022/07/30 12:20:59;;;;;;;2.97;1.80;;;;;26.00;94447.00;;;;7391222;19;20607;-75
2022/07/30 12:23:27;;;;;;;3.45;1.77;;;;;26.30;94436.00;;;;7394026;19;20129;-74
2022/07/30 12:26:02;;;;;;;2.75;1.90;;;;;27.00;94441.00;;;;7393932;19;20136;-73
2022/07/30 12:28:32;;;;;;;3.10;2.10;;;;;26.80;94452.00;;;;7393676;19;20153;-74
2022/07/30 12:31:03;;;;;;;3.95;2.05;;;;;26.90;94432.00;;;;7389767;19;20562;-74
2022/07/30 12:33:38;;;;;;;4.95;2.28;;;;;27.40;94429.00;;;;7390268;19;20121;-74
2022/07/30 12:36:09;;;;;;;7.03;2.22;;;;;27.70;94423.00;;;;7384767;19;20125;-74
2022/07/30 12:38:46;;;;;;;3.85;2.25;;;;;28.10;94432.00;;;;7386237;19;20149;-75
2022/07/30 12:41:21;;;;;;;6.57;2.30;;;;;27.80;94439.00;;;;7384442;19;20490;-76
2022/07/30 12:43:58;;;;;;;4.20;2.42;;;;;27.90;94439.00;;;;7387010;19;20779;-74
2022/07/30 12:46:40;;;;;;;4.95;2.28;;;;;26.70;94447.00;;;;7387160;19;20729;-74
2022/07/30 12:49:08;;;;;;;6.50;2.40;;;;;25.50;94454.00;;;;7386821;19;20152;-74
2022/07/30 12:51:52;;;;;;;3.92;2.10;;;;;25.10;94444.00;;;;7388419;19;20129;-75